Flight Track Log - Related Links

Times and Time Zones

All times are in EDT time to prevent confusion due to time zone crossing. See the SWA59 flight status page for this flight to view local times or setup timezone preferences in your user account.

Time Position Orientation Groundspeed Altitude Reporting Facility
EDT Latitude Longitude Course Direction KTS MPH feet Rate Location/Type
Sat 08:20:00 PM 32.7558 -117.2853 287° West 194 223 3,900  Level Los Angeles Center
Sat 08:21:02 PM 32.6978 -117.3222 208° Southwest 244 281 6,500 2,516 Climbing Los Angeles Center
Sat 08:22:04 PM 32.6486 -117.2478 128° Southeast 281 323 9,100 2,323 Climbing Los Angeles Center
Sat 08:23:06 PM 32.6356 -117.1419 98° East 323 372 11,300 2,371 Climbing Los Angeles Center
Sat 08:24:08 PM 32.6178 -117.0256 100° East 351 404 14,000 2,829 Climbing Los Angeles Center
Sat 08:25:09 PM 32.6203 -116.8744 89° East 380 437 17,100 2,683 Climbing Los Angeles Center
Sat 08:26:11 PM 32.6333 -116.7456 83° East 393 452 19,500 2,177 Climbing Los Angeles Center
Sat 08:27:13 PM 32.6467 -116.6111 83° East 411 473 21,600 2,032 Climbing Los Angeles Center
Sat 08:28:15 PM 32.6600 -116.4747 83° East 422 486 23,700 1,854 Climbing Los Angeles Center
Sat 08:29:16 PM 32.6717 -116.3361 84° East 430 495 25,400 1,756 Climbing Los Angeles Center
Sat 08:30:18 PM 32.6886 -116.1625 83° East 449 517 27,300 1,645 Climbing Los Angeles Center
Sat 08:31:20 PM 32.7031 -116.0133 83° East 459 528 28,800 1,403 Climbing Los Angeles Center
Sat 08:32:22 PM 32.7169 -115.8625 84° East 463 533 30,200 1,500 Climbing Los Angeles Center
Sat 08:33:24 PM 32.7311 -115.7092 84° East 469 540 31,900 1,512 Climbing Los Angeles Center
Sat 08:34:25 PM 32.7447 -115.5581 84° East 464 534 33,300 1,415 Climbing Los Angeles Center
Sat 08:35:27 PM 32.7536 -115.4061 86° East 464 534 34,800 1,452 Climbing Los Angeles Center
Sat 08:36:29 PM 32.7556 -115.2264 89° East 456 525 36,300 1,065 Climbing Los Angeles Center
Sat 08:37:31 PM 32.7578 -115.0767 89° East 454 522 37,000 341 Climbing Los Angeles Center
Sat 08:38:32 PM 32.7603 -114.9275 89° East 454 522 37,000  Level Los Angeles Center
Sat 08:39:34 PM 32.7622 -114.7783 89° East 453 521 37,000  Level Los Angeles Center
Sat 08:40:36 PM 32.7647 -114.6314 89° East 449 517 37,000  Level Los Angeles Center
Sat 08:41:38 PM 32.7678 -114.4825 89° East 451 519 37,000  Level Los Angeles Center
Sat 08:42:40 PM 32.7758 -114.3331 86° East 453 521 37,000  Level Los Angeles Center
Sat 08:43:41 PM 32.7783 -114.1547 89° East 450 518 37,000  Level Los Angeles Center
Sat 08:44:43 PM 32.7797 -114.0061 89° East 451 519 37,000  Level Los Angeles Center
Sat 08:45:45 PM 32.7933 -113.8564 84° East 458 527 37,000  Level Los Angeles Center
Sat 08:46:47 PM 32.8153 -113.7067 80° East 461 531 37,000  Level Los Angeles Center
Sat 08:47:48 PM 32.8358 -113.5575 81° East 458 527 37,000  Level Los Angeles Center
Sat 08:48:50 PM 32.8567 -113.4083 81° East 458 527 37,000  Level Los Angeles Center
Sat 08:50:04 PM 32.8847 -113.2375 79° East 462 532 37,000  Level Los Angeles Center
Sat 08:51:08 PM 32.9506 -113.0675 65° Northeast 466 536 37,000  Level Albuquerque Center
Sat 08:52:09 PM 33.0056 -112.9261 65° Northeast 468 539 37,000  Level Albuquerque Center
Sat 08:53:10 PM 33.0614 -112.7858 65° Northeast 467 537 37,000  Level Albuquerque Center
Sat 08:54:12 PM 33.1158 -112.6447 65° Northeast 467 537 37,000  Level Albuquerque Center
Sat 08:55:13 PM 33.1778 -112.4875 65° Northeast 465 535 37,000  Level Albuquerque Center
Sat 08:56:14 PM 33.2325 -112.3472 65° Northeast 468 539 37,000  Level Albuquerque Center
Sat 08:57:15 PM 33.2878 -112.2069 65° Northeast 469 540 37,000  Level Albuquerque Center
Sat 08:58:17 PM 33.3417 -112.0669 65° Northeast 467 537 37,000  Level Albuquerque Center
Sat 08:59:18 PM 33.4008 -111.9319 62° Northeast 465 535 37,000  Level Albuquerque Center
Sat 09:00:19 PM 33.4653 -111.7992 60° Northeast 464 534 37,000  Level Albuquerque Center
Sat 09:01:21 PM 33.5286 -111.6664 60° Northeast 465 535 37,000  Level Albuquerque Center
Sat 09:02:22 PM 33.6042 -111.5042 61° Northeast 468 539 37,000  Level Albuquerque Center
Sat 09:03:23 PM 33.6675 -111.3703 60° Northeast 467 537 37,000  Level Albuquerque Center
Sat 09:04:25 PM 33.7264 -111.2325 63° Northeast 468 539 37,000  Level Albuquerque Center
Sat 09:05:26 PM 33.7797 -111.0908 66° East 468 539 37,000  Level Albuquerque Center
Sat 09:06:27 PM 33.8303 -110.9453 67° East 472 543 37,000  Level Albuquerque Center
Sat 09:07:29 PM 33.8825 -110.8000 67° East 475 547 37,000  Level Albuquerque Center
Sat 09:08:30 PM 33.9336 -110.6556 67° East 473 544 37,000 344 Level Albuquerque Center
Sat 09:09:31 PM 33.9839 -110.5103 67° East 472 543 37,700 885 Climbing Albuquerque Center
Sat 09:10:32 PM 34.0367 -110.3542 68° East 473 544 38,800 634 Climbing Albuquerque Center
Sat 09:11:34 PM 34.0872 -110.2078 67° East 474 545 39,000 98 Climbing Albuquerque Center
Sat 09:12:35 PM 34.1392 -110.0481 69° East 478 550 39,000  Level Albuquerque Center
Sat 09:13:36 PM 34.1867 -109.8800 71° East 475 547 39,000  Level Albuquerque Center
Sat 09:14:38 PM 34.2264 -109.7358 72° East 474 545 39,000  Level Albuquerque Center
Sat 09:15:39 PM 34.2714 -109.5664 72° East 474 545 39,000  Level Albuquerque Center
Sat 09:16:40 PM 34.3089 -109.4222 72° East 472 543 39,000  Level Albuquerque Center
Sat 09:17:42 PM 34.3469 -109.2750 73° East 475 547 39,000  Level Albuquerque Center
Sat 09:18:43 PM 34.3900 -109.1044 73° East 476 548 39,000  Level Albuquerque Center
Sat 09:19:44 PM 34.4283 -108.9558 73° East 480 552 39,000  Level Albuquerque Center
Sat 09:20:45 PM 34.4803 -108.7869 69° East 482 555 39,000  Level Albuquerque Center
Sat 09:21:47 PM 34.5236 -108.6403 70° East 482 555 39,000  Level Albuquerque Center
Sat 09:22:48 PM 34.5664 -108.4947 70° East 482 555 39,000  Level Albuquerque Center
Sat 09:23:49 PM 34.6158 -108.3258 70° East 477 549 39,000  Level Albuquerque Center
Sat 09:24:51 PM 34.6569 -108.1811 71° East 476 548 39,000  Level Albuquerque Center
Sat 09:25:54 PM 34.6992 -108.0397 70° East 475 547 39,000  Level Albuquerque Center
Sat 09:26:53 PM 34.7417 -107.8883 71° East 474 545 39,000  Level Albuquerque Center
Sat 09:27:55 PM 34.7936 -107.7089 71° East 471 542 39,000  Level Albuquerque Center
Sat 09:28:56 PM 34.8364 -107.5589 71° East 469 540 39,000  Level Albuquerque Center
Sat 09:29:57 PM 34.8800 -107.4031 71° East 473 544 39,000  Level Albuquerque Center
Sat 09:30:58 PM 34.9222 -107.2531 71° East 470 541 39,000  Level Albuquerque Center
Sat 09:31:59 PM 34.9672 -107.0911 71° East 469 540 39,000  Level Albuquerque Center
Sat 09:33:01 PM 35.0097 -106.9403 71° East 471 542 39,000  Level Albuquerque Center
Sat 09:34:02 PM 35.0533 -106.7911 70° East 472 543 39,000  Level Albuquerque Center
Sat 09:35:03 PM 35.1231 -106.6497 59° Northeast 475 547 39,000  Level Albuquerque Center
Sat 09:36:04 PM 35.1797 -106.5064 64° Northeast 483 556 39,000  Level Albuquerque Center
Sat 09:37:06 PM 35.2414 -106.3656 62° Northeast 474 545 39,000  Level Albuquerque Center
Sat 09:38:07 PM 35.3036 -106.2250 61° Northeast 472 543 39,000  Level Albuquerque Center
Sat 09:39:08 PM 35.3642 -106.0864 62° Northeast 467 537 39,000  Level Albuquerque Center
Sat 09:40:10 PM 35.4328 -105.9389 60° Northeast 480 552 39,000  Level Albuquerque Center
Sat 09:41:11 PM 35.4986 -105.7786 63° Northeast 469 540 39,000  Level Albuquerque Center
Sat 09:42:12 PM 35.5592 -105.6358 62° Northeast 473 544 39,000  Level Albuquerque Center
Sat 09:43:13 PM 35.6228 -105.4914 62° Northeast 474 545 39,000  Level Albuquerque Center
Sat 09:44:14 PM 35.6847 -105.3458 62° Northeast 476 548 39,000  Level Albuquerque Center
Sat 09:45:16 PM 35.7472 -105.2006 62° Northeast 476 548 39,000  Level Albuquerque Center
Sat 09:46:17 PM 35.8086 -105.0544 63° Northeast 475 547 39,000  Level Albuquerque Center
Sat 09:47:18 PM 35.8700 -104.9092 62° Northeast 473 544 39,000  Level Albuquerque Center
Sat 09:48:19 PM 35.9311 -104.7644 62° Northeast 471 542 39,000  Level Albuquerque Center
Sat 09:49:20 PM 35.9925 -104.6178 63° Northeast 474 545 39,000  Level Albuquerque Center
Sat 09:50:21 PM 36.0519 -104.4711 63° Northeast 473 544 39,000  Level Albuquerque Center
Sat 09:51:23 PM 36.1147 -104.3231 62° Northeast 477 549 39,000  Level Albuquerque Center
Sat 09:52:24 PM 36.1750 -104.1764 63° Northeast 475 547 39,000  Level Albuquerque Center
Sat 09:53:25 PM 36.2364 -104.0317 62° Northeast 471 542 39,000  Level Albuquerque Center
Sat 09:54:26 PM 36.3047 -103.8614 63° Northeast 469 540 39,000  Level Albuquerque Center
Sat 09:55:27 PM 36.3644 -103.7158 63° Northeast 470 541 39,000  Level Albuquerque Center
Sat 09:56:28 PM 36.4225 -103.5703 64° Northeast 467 537 39,000  Level Albuquerque Center
Sat 09:57:29 PM 36.4817 -103.4247 63° Northeast 467 537 39,000  Level Albuquerque Center
Sat 09:58:30 PM 36.5397 -103.2797 63° Northeast 466 536 39,000  Level Albuquerque Center
Sat 09:59:32 PM 36.5986 -103.1322 64° Northeast 469 540 39,000  Level Albuquerque Center
Sat 10:00:33 PM 36.6550 -102.9894 64° Northeast 471 542 39,000  Level Albuquerque Center
Sat 10:01:34 PM 36.7103 -102.8497 64° Northeast 471 542 39,000  Level Albuquerque Center
Sat 10:02:35 PM 36.7750 -102.6853 64° Northeast 473 544 39,000  Level Albuquerque Center
Sat 10:03:36 PM 36.8294 -102.5450 64° Northeast 471 542 39,000  Level Albuquerque Center
Sat 10:04:37 PM 36.8908 -102.3900 64° Northeast 475 547 39,000  Level Albuquerque Center
Sat 10:05:38 PM 36.9447 -102.2508 64° Northeast 468 539 39,000  Level Albuquerque Center
Sat 10:06:39 PM 37.0086 -102.0858 64° Northeast 472 543 39,000  Level Albuquerque Center
Sat 10:07:15 PM 37.0342 -102.0144 66° East 470 541 39,000  Level Kansas City Center
Sat 10:08:16 PM 37.1106 -101.8631 58° Northeast 462 532 39,000  Level Kansas City Center
Sat 10:09:17 PM 37.1831 -101.7422 53° Northeast 454 522 39,000  Level Kansas City Center
Sat 10:10:18 PM 37.2675 -101.5986 54° Northeast 456 525 39,000  Level Kansas City Center
Sat 10:11:19 PM 37.3397 -101.4767 53° Northeast 456 525 39,000  Level Kansas City Center
Sat 10:12:20 PM 37.4108 -101.3519 54° Northeast 458 527 39,000  Level Kansas City Center
Sat 10:13:21 PM 37.4944 -101.2067 54° Northeast 458 527 39,000  Level Kansas City Center
Sat 10:14:22 PM 37.5625 -101.0883 54° Northeast 461 531 39,000  Level Kansas City Center
Sat 10:15:23 PM 37.5925 -100.9275 77° East 479 551 39,000  Level Kansas City Center
Sat 10:16:24 PM 37.6053 -100.7447 85° East 503 579 39,000  Level Kansas City Center
Sat 10:17:25 PM 37.6156 -100.5683 86° East 505 581 39,000  Level Kansas City Center
Sat 10:18:26 PM 37.6036 -100.3717 94° East 503 579 39,000  Level Kansas City Center
Sat 10:19:27 PM 37.5844 -100.2042 98° East 505 581 39,000  Level Kansas City Center
Sat 10:20:28 PM 37.5608 -100.0106 99° East 503 579 39,000  Level Kansas City Center
Sat 10:21:29 PM 37.5422 -99.8453 98° East 499 574 39,000  Level Kansas City Center
Sat 10:22:30 PM 37.5208 -99.6800 99° East 500 575 39,000  Level Kansas City Center
Sat 10:23:31 PM 37.4978 -99.4889 99° East 497 572 39,000  Level Kansas City Center
Sat 10:24:32 PM 37.4778 -99.3169 98° East 497 572 39,000  Level Kansas City Center
Sat 10:25:33 PM 37.4567 -99.1464 99° East 496 571 39,000  Level Kansas City Center
Sat 10:26:34 PM 37.4358 -98.9753 99° East 496 571 39,000  Level Kansas City Center
Sat 10:27:35 PM 37.4147 -98.8036 99° East 498 573 39,000  Level Kansas City Center
Sat 10:28:36 PM 37.3958 -98.6308 98° East 500 575 39,000  Level Kansas City Center
Sat 10:29:37 PM 37.3864 -98.4589 94° East 499 574 39,000  Level Kansas City Center
Sat 10:30:38 PM 37.3747 -98.2822 95° East 504 580 39,000  Level Kansas City Center
Sat 10:31:39 PM 37.3933 -98.1144 82° East 495 570 39,000  Level Kansas City Center
Sat 10:32:40 PM 37.4600 -97.9764 59° Northeast 472 543 39,000  Level Kansas City Center
Sat 10:33:40 PM 37.5336 -97.8419 55° Northeast 468 539 39,000  Level Kansas City Center
Sat 10:34:42 PM 37.6194 -97.6783 56° Northeast 471 542 39,000  Level Kansas City Center
Sat 10:35:42 PM 37.6822 -97.5589 56° Northeast 460 529 39,000  Level Kansas City Center
Sat 10:36:43 PM 37.7608 -97.4147 55° Northeast 460 529 39,000  Level Kansas City Center
Sat 10:37:44 PM 37.8314 -97.2819 56° Northeast 459 528 39,000  Level Kansas City Center
Sat 10:38:45 PM 37.9000 -97.1506 56° Northeast 451 519 39,000  Level Kansas City Center
Sat 10:39:46 PM 37.9689 -97.0189 56° Northeast 451 519 39,000  Level Kansas City Center
Sat 10:40:47 PM 38.0375 -96.8883 56° Northeast 448 516 39,000  Level Kansas City Center
Sat 10:41:48 PM 38.1061 -96.7558 57° Northeast 450 518 39,000  Level Kansas City Center
Sat 10:42:49 PM 38.1756 -96.6236 56° Northeast 451 519 39,000  Level Kansas City Center
Sat 10:43:49 PM 38.2447 -96.4906 56° Northeast 452 520 39,000  Level Kansas City Center
Sat 10:44:50 PM 38.3214 -96.3408 57° Northeast 450 518 39,000  Level Kansas City Center
Sat 10:45:51 PM 38.3886 -96.2100 57° Northeast 460 529 39,000  Level Kansas City Center
Sat 10:46:52 PM 38.4664 -96.0550 57° Northeast 465 535 39,000  Level Kansas City Center
Sat 10:47:53 PM 38.5336 -95.9183 58° Northeast 472 543 39,000  Level Kansas City Center
Sat 10:48:53 PM 38.6025 -95.7842 57° Northeast 472 543 39,000  Level Kansas City Center
Sat 10:49:54 PM 38.6817 -95.6281 57° Northeast 471 542 39,000  Level Kansas City Center
Sat 10:50:55 PM 38.7503 -95.4925 57° Northeast 475 547 39,000  Level Kansas City Center
Sat 10:51:56 PM 38.8175 -95.3561 58° Northeast 474 545 39,000  Level Kansas City Center
Sat 10:52:56 PM 38.8953 -95.1997 57° Northeast 469 540 39,000  Level Kansas City Center
Sat 10:53:57 PM 38.9619 -95.0644 58° Northeast 472 543 39,000  Level Kansas City Center
Sat 10:54:58 PM 39.0389 -94.9067 58° Northeast 472 543 39,000  Level Kansas City Center
Sat 10:55:58 PM 39.1053 -94.7717 58° Northeast 471 542 39,000  Level Kansas City Center
Sat 10:56:59 PM 39.1717 -94.6331 58° Northeast 477 549 39,000  Level Kansas City Center
Sat 10:58:00 PM 39.2514 -94.4728 57° Northeast 476 548 39,000  Level Kansas City Center
Sat 10:59:00 PM 39.3181 -94.3369 58° Northeast 470 541 39,000  Level Kansas City Center
Sat 11:00:01 PM 39.3831 -94.2017 58° Northeast 465 535 39,000  Level Kansas City Center
Sat 11:01:02 PM 39.4575 -94.0450 58° Northeast 458 527 39,000  Level Kansas City Center
Sat 11:02:02 PM 39.5189 -93.9061 60° Northeast 465 535 39,000  Level Kansas City Center
Sat 11:03:03 PM 39.5742 -93.7625 63° Northeast 467 537 39,000  Level Kansas City Center
Sat 11:04:04 PM 39.6408 -93.5953 63° Northeast 467 537 39,000  Level Kansas City Center
Sat 11:05:04 PM 39.6986 -93.4456 63° Northeast 469 540 39,000  Level Kansas City Center
Sat 11:06:05 PM 39.7575 -93.2997 62° Northeast 463 533 39,000  Level Kansas City Center
Sat 11:07:05 PM 39.8150 -93.1531 63° Northeast 461 531 39,000  Level Kansas City Center
Sat 11:08:06 PM 39.8708 -93.0036 64° Northeast 464 534 39,000  Level Kansas City Center
Sat 11:09:07 PM 39.9294 -92.8519 63° Northeast 472 543 39,000  Level Kansas City Center
Sat 11:10:07 PM 39.9881 -92.7019 63° Northeast 472 543 39,000  Level Kansas City Center
Sat 11:11:08 PM 40.0456 -92.5489 64° Northeast 476 548 39,000  Level Kansas City Center
Sat 11:12:08 PM 40.1078 -92.3833 64° Northeast 478 550 39,000  Level Kansas City Center
Sat 11:13:09 PM 40.1736 -92.2142 63° Northeast 481 554 39,000  Level Kansas City Center
Sat 11:14:10 PM 40.2308 -92.0611 64° Northeast 479 551 39,000  Level Kansas City Center
Sat 11:15:10 PM 40.2869 -91.9083 64° Northeast 474 545 39,000  Level Kansas City Center
Sat 11:16:11 PM 40.3439 -91.7561 64° Northeast 472 543 39,000  Level Kansas City Center
Sat 11:17:11 PM 40.4008 -91.6025 64° Northeast 472 543 39,000  Level Kansas City Center
Sat 11:18:12 PM 40.4569 -91.4486 64° Northeast 473 544 39,000  Level Kansas City Center
Sat 11:19:12 PM 40.5178 -91.2828 64° Northeast 474 545 39,000  Level Kansas City Center
Sat 11:20:13 PM 40.5750 -91.1281 64° Northeast 472 543 39,000  Level Kansas City Center
Sat 11:21:13 PM 40.6322 -90.9703 64° Northeast 475 547 39,000 -397 Level Kansas City Center
Sat 11:22:14 PM 40.6894 -90.8117 65° Northeast 478 550 38,200 -836 Descending Kansas City Center
Sat 11:23:15 PM 40.7458 -90.6550 65° Northeast 474 545 37,300 -942 Descending Kansas City Center
Sat 11:24:15 PM 40.8028 -90.4964 65° Northeast 475 547 36,300 -992 Descending Kansas City Center
Sat 11:25:16 PM 40.8594 -90.3372 65° Northeast 477 549 35,300 -1,488 Descending Kansas City Center
Sat 11:26:20 PM 40.9194 -90.1653 65° Northeast 484 557 33,200 -2,496 Descending Chicago Center
Sat 11:27:21 PM 40.9772 -90.0064 64° Northeast 485 558 30,100 -3,025 Descending Chicago Center
Sat 11:28:21 PM 41.0306 -89.8483 66° East 484 557 27,100 -3,025 Descending Chicago Center
Sat 11:29:22 PM 41.0861 -89.6836 66° East 487 560 24,000 -3,124 Descending Chicago Center
Sat 11:30:22 PM 41.1417 -89.5250 65° Northeast 478 550 20,800 -3,074 Descending Chicago Center
Sat 11:31:23 PM 41.1931 -89.3747 66° East 454 522 17,800 -2,727 Descending Chicago Center
Sat 11:32:23 PM 41.2431 -89.2286 65° Northeast 436 502 15,300 -2,182 Descending Chicago Center
Sat 11:33:24 PM 41.2869 -89.0953 66° East 408 470 13,400 -1,983 Descending Chicago Center
Sat 11:34:24 PM 41.3386 -88.9439 66° East 376 433 11,300 -1,240 Descending Chicago Center
Sat 11:35:25 PM 41.3761 -88.8300 66° East 334 384 10,900 -992 Descending Chicago Center
Sat 11:36:25 PM 41.4125 -88.7242 65° Northeast 320 368 9,300 -1,289 Descending Chicago Center
Sat 11:37:26 PM 41.4364 -88.6153 74° East 310 357 8,300 -1,289 Descending Chicago Center
Sat 11:38:26 PM 41.4592 -88.5092 74° East 299 344 6,700 -1,150 Descending Chicago Center
Sat 11:39:26 PM 41.4825 -88.4058 73° East 294 338 6,000 -347 Descending Chicago Center
Sat 11:40:27 PM 41.5042 -88.3033 74° East 289 333 6,000  Level Chicago Center
Sat 11:41:27 PM 41.5267 -88.2003 74° East 288 331 6,000 -397 Level Chicago Center
Sat 11:42:28 PM 41.5503 -88.0967 73° East 288 331 5,200 -992 Descending Chicago Center
Sat 11:43:28 PM 41.5719 -87.9925 74° East 288 331 4,000 -744 Descending Chicago Center
Sat 11:44:29 PM 41.5925 -87.8967 74° East 275 316 3,700 -545 Descending Chicago Center
Sat 11:45:29 PM 41.6219 -87.8192 63° Northeast 255 293 2,900 -595 Descending Chicago Center
Sat 11:46:30 PM 41.6608 -87.7492 53° Northeast 243 280 2,500 -198 Descending Chicago Center
Sat 11:47:30 PM 41.6981 -87.6800 54° Northeast 237 273 2,500 -198 Level Chicago Center
Sat 11:48:31 PM 41.7306 -87.6761 North 188 216 2,100 -496 Descending Chicago Center
Sat 11:49:31 PM 41.7525 -87.7072 313° West 140 161 1,500 -550 Descending Chicago Center
Sat 11:50:31 PM 41.7789 -87.7436 314° West 130 150 1,000 -500 Descending Chicago Center

Login

Don't have an account? Register now (free) for customized features, flight alerts, and more!